sensor_id;sensor_type;location;lat;lon;timestamp;temperature;humidity
23323;DHT22;11833;52.554;13.554;2023-07-20T00:00:33;18.50;99.90
23323;DHT22;11833;52.554;13.554;2023-07-20T00:03:13;18.50;99.90
23323;DHT22;11833;52.554;13.554;2023-07-20T00:05:43;18.50;99.90
23323;DHT22;11833;52.554;13.554;2023-07-20T00:08:09;18.50;99.90
23323;DHT22;11833;52.554;13.554;2023-07-20T00:10:35;18.40;99.90
23323;DHT22;11833;52.554;13.554;2023-07-20T00:13:01;18.40;99.90
23323;DHT22;11833;52.554;13.554;2023-07-20T00:15:26;18.50;99.90
23323;DHT22;11833;52.554;13.554;2023-07-20T00:17:52;18.50;99.90
23323;DHT22;11833;52.554;13.554;2023-07-20T00:20:18;18.70;99.90
23323;DHT22;11833;52.554;13.554;2023-07-20T00:22:43;18.50;99.90
23323;DHT22;11833;52.554;13.554;2023-07-20T00:25:09;18.40;99.90
23323;DHT22;11833;52.554;13.554;2023-07-20T00:27:37;18.20;99.90
23323;DHT22;11833;52.554;13.554;2023-07-20T00:30:04;18.30;99.90
23323;DHT22;11833;52.554;13.554;2023-07-20T00:32:30;18.20;99.90
23323;DHT22;11833;52.554;13.554;2023-07-20T00:34:56;18.10;99.90
23323;DHT22;11833;52.554;13.554;2023-07-20T00:37:22;18.00;99.90
23323;DHT22;11833;52.554;13.554;2023-07-20T00:39:47;18.00;99.90
23323;DHT22;11833;52.554;13.554;2023-07-20T00:42:13;18.10;99.90
23323;DHT22;11833;52.554;13.554;2023-07-20T00:44:39;18.20;99.90
23323;DHT22;11833;52.554;13.554;2023-07-20T00:47:05;18.10;99.90
23323;DHT22;11833;52.554;13.554;2023-07-20T00:49:31;18.20;99.90
23323;DHT22;11833;52.554;13.554;2023-07-20T00:51:59;18.20;99.90
23323;DHT22;11833;52.554;13.554;2023-07-20T00:54:25;18.10;99.90
23323;DHT22;11833;52.554;13.554;2023-07-20T00:56:53;18.00;99.90
23323;DHT22;11833;52.554;13.554;2023-07-20T00:59:20;18.00;99.90
23323;DHT22;11833;52.554;13.554;2023-07-20T01:01:46;18.00;99.90
23323;DHT22;11833;52.554;13.554;2023-07-20T01:04:13;18.00;99.90
23323;DHT22;11833;52.554;13.554;2023-07-20T01:12:47;17.80;99.90
23323;DHT22;11833;52.554;13.554;2023-07-20T01:15:13;17.80;99.90
23323;DHT22;11833;52.554;13.554;2023-07-20T01:17:39;17.70;99.90
23323;DHT22;11833;52.554;13.554;2023-07-20T01:20:07;17.60;99.90
23323;DHT22;11833;52.554;13.554;2023-07-20T01:31:24;17.50;99.90
23323;DHT22;11833;52.554;13.554;2023-07-20T01:33:53;17.40;99.90
23323;DHT22;11833;52.554;13.554;2023-07-20T01:36:23;17.60;99.90
23323;DHT22;11833;52.554;13.554;2023-07-20T01:38:51;17.80;99.90
23323;DHT22;11833;52.554;13.554;2023-07-20T01:41:17;17.80;99.90
23323;DHT22;11833;52.554;13.554;2023-07-20T01:43:44;17.70;99.90
23323;DHT22;11833;52.554;13.554;2023-07-20T01:46:10;17.80;99.90
23323;DHT22;11833;52.554;13.554;2023-07-20T01:48:36;17.60;99.90
23323;DHT22;11833;52.554;13.554;2023-07-20T01:51:01;17.70;99.90
23323;DHT22;11833;52.554;13.554;2023-07-20T01:53:27;17.90;99.90
23323;DHT22;11833;52.554;13.554;2023-07-20T01:55:53;17.80;99.90
23323;DHT22;11833;52.554;13.554;2023-07-20T01:58:20;17.80;99.90
23323;DHT22;11833;52.554;13.554;2023-07-20T02:00:46;17.70;99.90
23323;DHT22;11833;52.554;13.554;2023-07-20T02:03:12;17.60;99.90
23323;DHT22;11833;52.554;13.554;2023-07-20T02:05:38;17.70;99.90
23323;DHT22;11833;52.554;13.554;2023-07-20T02:08:04;17.80;99.90
23323;DHT22;11833;52.554;13.554;2023-07-20T02:10:30;17.80;99.90
23323;DHT22;11833;52.554;13.554;2023-07-20T02:12:56;17.70;99.90
23323;DHT22;11833;52.554;13.554;2023-07-20T02:15:22;18.10;99.90
23323;DHT22;11833;52.554;13.554;2023-07-20T02:17:48;18.00;99.90
23323;DHT22;11833;52.554;13.554;2023-07-20T02:20:14;17.90;99.90
23323;DHT22;11833;52.554;13.554;2023-07-20T02:22:40;17.80;99.90
23323;DHT22;11833;52.554;13.554;2023-07-20T02:25:06;17.50;99.90
23323;DHT22;11833;52.554;13.554;2023-07-20T02:27:36;17.40;99.90
23323;DHT22;11833;52.554;13.554;2023-07-20T02:30:04;17.40;99.90
23323;DHT22;11833;52.554;13.554;2023-07-20T02:32:30;17.40;99.90
23323;DHT22;11833;52.554;13.554;2023-07-20T02:34:58;17.40;99.90
23323;DHT22;11833;52.554;13.554;2023-07-20T02:37:24;17.30;99.90
23323;DHT22;11833;52.554;13.554;2023-07-20T02:39:50;17.40;99.90
23323;DHT22;11833;52.554;13.554;2023-07-20T02:42:15;17.40;99.90
23323;DHT22;11833;52.554;13.554;2023-07-20T02:44:41;17.50;99.90
23323;DHT22;11833;52.554;13.554;2023-07-20T02:47:07;17.50;99.90
23323;DHT22;11833;52.554;13.554;2023-07-20T02:49:33;17.50;99.90
23323;DHT22;11833;52.554;13.554;2023-07-20T02:51:59;17.40;99.90
23323;DHT22;11833;52.554;13.554;2023-07-20T02:54:25;17.30;99.90
23323;DHT22;11833;52.554;13.554;2023-07-20T02:56:51;17.40;99.90
23323;DHT22;11833;52.554;13.554;2023-07-20T02:59:17;17.30;99.90
23323;DHT22;11833;52.554;13.554;2023-07-20T03:01:42;17.10;99.90
23323;DHT22;11833;52.554;13.554;2023-07-20T03:04:08;17.10;99.90
23323;DHT22;11833;52.554;13.554;2023-07-20T03:06:37;17.10;99.90
23323;DHT22;11833;52.554;13.554;2023-07-20T03:09:03;17.20;99.90
23323;DHT22;11833;52.554;13.554;2023-07-20T03:11:29;17.20;99.90
23323;DHT22;11833;52.554;13.554;2023-07-20T03:13:55;17.30;99.90
23323;DHT22;11833;52.554;13.554;2023-07-20T03:16:23;17.10;99.90
23323;DHT22;11833;52.554;13.554;2023-07-20T03:18:50;17.30;99.90
23323;DHT22;11833;52.554;13.554;2023-07-20T03:21:16;17.20;99.90
23323;DHT22;11833;52.554;13.554;2023-07-20T03:23:42;17.20;99.90
23323;DHT22;11833;52.554;13.554;2023-07-20T03:26:08;17.20;99.90
23323;DHT22;11833;52.554;13.554;2023-07-20T03:28:37;17.10;99.90
23323;DHT22;11833;52.554;13.554;2023-07-20T03:31:04;17.10;99.90
23323;DHT22;11833;52.554;13.554;2023-07-20T03:33:31;17.30;99.90
23323;DHT22;11833;52.554;13.554;2023-07-20T03:35:57;17.30;99.90
23323;DHT22;11833;52.554;13.554;2023-07-20T03:38:24;17.40;99.90
23323;DHT22;11833;52.554;13.554;2023-07-20T03:43:20;17.50;99.90
23323;DHT22;11833;52.554;13.554;2023-07-20T03:45:47;17.30;99.90
23323;DHT22;11833;52.554;13.554;2023-07-20T03:48:17;17.20;99.90
23323;DHT22;11833;52.554;13.554;2023-07-20T03:50:45;17.20;99.90
23323;DHT22;11833;52.554;13.554;2023-07-20T03:53:12;17.10;99.90
23323;DHT22;11833;52.554;13.554;2023-07-20T03:55:38;17.10;99.90
23323;DHT22;11833;52.554;13.554;2023-07-20T03:58:06;17.20;99.90
23323;DHT22;11833;52.554;13.554;2023-07-20T04:00:33;17.20;99.90
23323;DHT22;11833;52.554;13.554;2023-07-20T04:02:59;17.30;99.90
23323;DHT22;11833;52.554;13.554;2023-07-20T04:05:25;17.30;99.90
23323;DHT22;11833;52.554;13.554;2023-07-20T04:07:51;17.30;99.90
23323;DHT22;11833;52.554;13.554;2023-07-20T04:10:18;17.40;99.90
23323;DHT22;11833;52.554;13.554;2023-07-20T04:12:45;17.30;99.90
23323;DHT22;11833;52.554;13.554;2023-07-20T04:15:12;17.30;99.90
23323;DHT22;11833;52.554;13.554;2023-07-20T04:17:39;17.30;99.90
23323;DHT22;11833;52.554;13.554;2023-07-20T04:20:07;17.30;99.90
23323;DHT22;11833;52.554;13.554;2023-07-20T04:22:33;17.30;99.90
23323;DHT22;11833;52.554;13.554;2023-07-20T04:24:59;17.20;99.90
23323;DHT22;11833;52.554;13.554;2023-07-20T04:27:25;17.20;99.90
23323;DHT22;11833;52.554;13.554;2023-07-20T04:29:52;17.20;99.90
23323;DHT22;11833;52.554;13.554;2023-07-20T04:32:18;17.20;99.90
23323;DHT22;11833;52.554;13.554;2023-07-20T04:34:43;17.20;99.90
23323;DHT22;11833;52.554;13.554;2023-07-20T04:37:09;17.20;99.90
23323;DHT22;11833;52.554;13.554;2023-07-20T04:39:35;17.20;99.90
23323;DHT22;11833;52.554;13.554;2023-07-20T04:42:00;17.40;99.90
23323;DHT22;11833;52.554;13.554;2023-07-20T04:44:26;17.40;99.90
23323;DHT22;11833;52.554;13.554;2023-07-20T04:46:52;17.50;99.90
23323;DHT22;11833;52.554;13.554;2023-07-20T04:49:17;17.40;99.90
23323;DHT22;11833;52.554;13.554;2023-07-20T04:51:43;17.30;99.90
23323;DHT22;11833;52.554;13.554;2023-07-20T04:54:09;17.30;99.90
23323;DHT22;11833;52.554;13.554;2023-07-20T04:56:35;17.30;99.90
23323;DHT22;11833;52.554;13.554;2023-07-20T04:59:00;17.20;99.90
23323;DHT22;11833;52.554;13.554;2023-07-20T05:01:26;17.20;99.90
23323;DHT22;11833;52.554;13.554;2023-07-20T05:03:52;17.40;99.90
23323;DHT22;11833;52.554;13.554;2023-07-20T05:06:18;17.40;99.90
23323;DHT22;11833;52.554;13.554;2023-07-20T05:08:44;17.50;99.90
23323;DHT22;11833;52.554;13.554;2023-07-20T05:11:11;17.60;99.90
23323;DHT22;11833;52.554;13.554;2023-07-20T05:13:37;17.50;99.90
23323;DHT22;11833;52.554;13.554;2023-07-20T05:16:03;17.50;99.90
23323;DHT22;11833;52.554;13.554;2023-07-20T05:18:29;17.50;99.90
23323;DHT22;11833;52.554;13.554;2023-07-20T05:20:55;17.70;99.90
23323;DHT22;11833;52.554;13.554;2023-07-20T05:23:21;17.80;99.90
23323;DHT22;11833;52.554;13.554;2023-07-20T05:25:54;17.80;99.90
23323;DHT22;11833;52.554;13.554;2023-07-20T05:28:22;17.90;99.90
23323;DHT22;11833;52.554;13.554;2023-07-20T05:30:48;17.80;99.90
23323;DHT22;11833;52.554;13.554;2023-07-20T05:33:14;17.90;99.90
23323;DHT22;11833;52.554;13.554;2023-07-20T05:35:40;17.70;99.90
23323;DHT22;11833;52.554;13.554;2023-07-20T05:38:05;17.60;99.90
23323;DHT22;11833;52.554;13.554;2023-07-20T05:40:32;17.60;99.90
23323;DHT22;11833;52.554;13.554;2023-07-20T05:42:58;17.70;99.90
23323;DHT22;11833;52.554;13.554;2023-07-20T05:45:24;17.90;99.90
23323;DHT22;11833;52.554;13.554;2023-07-20T05:47:50;17.90;99.90
23323;DHT22;11833;52.554;13.554;2023-07-20T05:50:15;17.70;99.90
23323;DHT22;11833;52.554;13.554;2023-07-20T05:52:41;17.70;99.90
23323;DHT22;11833;52.554;13.554;2023-07-20T05:55:07;17.80;99.90
23323;DHT22;11833;52.554;13.554;2023-07-20T05:57:33;17.90;99.90
23323;DHT22;11833;52.554;13.554;2023-07-20T05:59:59;17.90;99.90
23323;DHT22;11833;52.554;13.554;2023-07-20T06:02:25;18.10;99.90
23323;DHT22;11833;52.554;13.554;2023-07-20T06:04:51;18.10;99.90
23323;DHT22;11833;52.554;13.554;2023-07-20T06:07:17;18.20;99.90
23323;DHT22;11833;52.554;13.554;2023-07-20T06:09:42;18.30;99.90
23323;DHT22;11833;52.554;13.554;2023-07-20T06:12:08;18.30;99.90
23323;DHT22;11833;52.554;13.554;2023-07-20T06:14:34;18.40;99.90
23323;DHT22;11833;52.554;13.554;2023-07-20T06:17:00;18.50;99.90
23323;DHT22;11833;52.554;13.554;2023-07-20T06:19:26;18.70;99.90
23323;DHT22;11833;52.554;13.554;2023-07-20T06:21:53;18.60;99.90
23323;DHT22;11833;52.554;13.554;2023-07-20T06:24:19;18.40;99.90
23323;DHT22;11833;52.554;13.554;2023-07-20T06:26:45;18.30;99.90
23323;DHT22;11833;52.554;13.554;2023-07-20T06:29:10;18.20;99.90
23323;DHT22;11833;52.554;13.554;2023-07-20T06:31:36;18.30;99.90
23323;DHT22;11833;52.554;13.554;2023-07-20T06:34:03;18.30;99.90
23323;DHT22;11833;52.554;13.554;2023-07-20T06:36:29;18.10;99.90
23323;DHT22;11833;52.554;13.554;2023-07-20T06:38:55;18.20;99.90
23323;DHT22;11833;52.554;13.554;2023-07-20T06:41:21;18.20;99.90
23323;DHT22;11833;52.554;13.554;2023-07-20T06:43:47;18.30;99.90
23323;DHT22;11833;52.554;13.554;2023-07-20T06:46:13;18.30;99.90
23323;DHT22;11833;52.554;13.554;2023-07-20T06:48:39;18.40;99.90
23323;DHT22;11833;52.554;13.554;2023-07-20T06:51:05;18.40;99.90
23323;DHT22;11833;52.554;13.554;2023-07-20T06:53:31;18.40;99.90
23323;DHT22;11833;52.554;13.554;2023-07-20T06:55:57;18.20;99.90
23323;DHT22;11833;52.554;13.554;2023-07-20T06:58:25;18.40;99.90
23323;DHT22;11833;52.554;13.554;2023-07-20T07:00:51;18.40;99.90
23323;DHT22;11833;52.554;13.554;2023-07-20T07:03:17;18.40;99.90
23323;DHT22;11833;52.554;13.554;2023-07-20T07:05:43;18.30;99.90
23323;DHT22;11833;52.554;13.554;2023-07-20T07:08:11;18.20;99.90
23323;DHT22;11833;52.554;13.554;2023-07-20T07:10:37;18.10;99.90
23323;DHT22;11833;52.554;13.554;2023-07-20T07:13:03;18.10;99.90
23323;DHT22;11833;52.554;13.554;2023-07-20T07:15:29;18.10;99.90
23323;DHT22;11833;52.554;13.554;2023-07-20T07:17:55;18.50;99.90
23323;DHT22;11833;52.554;13.554;2023-07-20T07:20:22;18.70;99.90
23323;DHT22;11833;52.554;13.554;2023-07-20T07:22:50;18.60;99.90
23323;DHT22;11833;52.554;13.554;2023-07-20T07:25:17;18.70;99.90
23323;DHT22;11833;52.554;13.554;2023-07-20T07:27:43;18.70;99.90
23323;DHT22;11833;52.554;13.554;2023-07-20T07:30:09;18.60;99.90
23323;DHT22;11833;52.554;13.554;2023-07-20T07:32:35;18.60;99.90
23323;DHT22;11833;52.554;13.554;2023-07-20T07:35:01;18.50;99.90
23323;DHT22;11833;52.554;13.554;2023-07-20T07:37:27;18.70;99.90
23323;DHT22;11833;52.554;13.554;2023-07-20T07:39:53;18.80;99.90
23323;DHT22;11833;52.554;13.554;2023-07-20T07:42:18;18.80;99.90
23323;DHT22;11833;52.554;13.554;2023-07-20T07:44:45;18.90;99.90
23323;DHT22;11833;52.554;13.554;2023-07-20T07:47:10;19.00;99.90
23323;DHT22;11833;52.554;13.554;2023-07-20T07:49:36;19.10;99.90
23323;DHT22;11833;52.554;13.554;2023-07-20T07:52:02;19.30;99.90
23323;DHT22;11833;52.554;13.554;2023-07-20T07:54:28;19.30;99.90
23323;DHT22;11833;52.554;13.554;2023-07-20T07:56:54;19.50;99.90
23323;DHT22;11833;52.554;13.554;2023-07-20T07:59:20;19.50;99.90
23323;DHT22;11833;52.554;13.554;2023-07-20T08:01:46;19.50;99.90
23323;DHT22;11833;52.554;13.554;2023-07-20T08:04:12;19.40;99.90
23323;DHT22;11833;52.554;13.554;2023-07-20T08:06:38;19.70;99.90
23323;DHT22;11833;52.554;13.554;2023-07-20T08:09:04;19.60;99.90
23323;DHT22;11833;52.554;13.554;2023-07-20T08:11:30;19.70;99.90
23323;DHT22;11833;52.554;13.554;2023-07-20T08:14:02;19.90;99.30
23323;DHT22;11833;52.554;13.554;2023-07-20T08:16:28;19.80;98.70
23323;DHT22;11833;52.554;13.554;2023-07-20T08:18:54;19.90;98.20
23323;DHT22;11833;52.554;13.554;2023-07-20T08:21:19;20.10;98.80
23323;DHT22;11833;52.554;13.554;2023-07-20T08:23:45;20.30;97.50
23323;DHT22;11833;52.554;13.554;2023-07-20T08:26:11;20.40;97.00
23323;DHT22;11833;52.554;13.554;2023-07-20T08:28:37;20.60;95.40
23323;DHT22;11833;52.554;13.554;2023-07-20T08:31:05;20.30;94.50
23323;DHT22;11833;52.554;13.554;2023-07-20T08:33:32;20.00;96.00
23323;DHT22;11833;52.554;13.554;2023-07-20T08:36:00;20.00;95.60
23323;DHT22;11833;52.554;13.554;2023-07-20T08:38:27;20.00;96.00
23323;DHT22;11833;52.554;13.554;2023-07-20T08:40:53;20.10;95.60
23323;DHT22;11833;52.554;13.554;2023-07-20T08:43:23;20.10;95.80
23323;DHT22;11833;52.554;13.554;2023-07-20T08:45:54;20.30;95.60
23323;DHT22;11833;52.554;13.554;2023-07-20T08:48:22;20.40;93.90
23323;DHT22;11833;52.554;13.554;2023-07-20T08:50:51;20.50;93.40
23323;DHT22;11833;52.554;13.554;2023-07-20T08:53:17;20.40;93.60
23323;DHT22;11833;52.554;13.554;2023-07-20T08:55:45;20.70;92.40
23323;DHT22;11833;52.554;13.554;2023-07-20T08:58:14;20.70;91.60
23323;DHT22;11833;52.554;13.554;2023-07-20T09:00:41;20.30;91.80
23323;DHT22;11833;52.554;13.554;2023-07-20T09:03:07;20.20;93.60
23323;DHT22;11833;52.554;13.554;2023-07-20T09:05:34;20.40;91.70
23323;DHT22;11833;52.554;13.554;2023-07-20T09:08:01;20.50;91.50
23323;DHT22;11833;52.554;13.554;2023-07-20T09:10:29;20.70;91.80
23323;DHT22;11833;52.554;13.554;2023-07-20T09:12:55;20.80;91.00
23323;DHT22;11833;52.554;13.554;2023-07-20T09:15:22;20.90;88.90
23323;DHT22;11833;52.554;13.554;2023-07-20T09:17:49;20.50;88.00
23323;DHT22;11833;52.554;13.554;2023-07-20T09:20:19;21.30;87.90
23323;DHT22;11833;52.554;13.554;2023-07-20T09:22:45;21.40;86.60
23323;DHT22;11833;52.554;13.554;2023-07-20T09:25:15;21.70;84.10
23323;DHT22;11833;52.554;13.554;2023-07-20T09:27:47;21.90;82.60
23323;DHT22;11833;52.554;13.554;2023-07-20T09:30:16;21.70;80.30
23323;DHT22;11833;52.554;13.554;2023-07-20T09:32:47;21.60;82.40
23323;DHT22;11833;52.554;13.554;2023-07-20T09:38:28;24.00;73.70
23323;DHT22;11833;52.554;13.554;2023-07-20T09:40:54;23.50;70.10
23323;DHT22;11833;52.554;13.554;2023-07-20T09:43:19;22.50;70.80
23323;DHT22;11833;52.554;13.554;2023-07-20T09:45:45;21.90;74.50
23323;DHT22;11833;52.554;13.554;2023-07-20T09:48:11;21.50;77.50
23323;DHT22;11833;52.554;13.554;2023-07-20T09:50:42;21.40;77.40
23323;DHT22;11833;52.554;13.554;2023-07-20T09:53:13;21.20;76.90
23323;DHT22;11833;52.554;13.554;2023-07-20T09:55:41;21.00;75.80
23323;DHT22;11833;52.554;13.554;2023-07-20T09:58:10;20.90;78.70
23323;DHT22;11833;52.554;13.554;2023-07-20T10:00:40;20.70;81.70
23323;DHT22;11833;52.554;13.554;2023-07-20T10:03:09;20.70;81.60
23323;DHT22;11833;52.554;13.554;2023-07-20T10:05:39;20.60;82.00
23323;DHT22;11833;52.554;13.554;2023-07-20T10:08:12;20.40;84.60
23323;DHT22;11833;52.554;13.554;2023-07-20T10:10:41;20.30;86.90
23323;DHT22;11833;52.554;13.554;2023-07-20T10:13:24;20.20;89.90
23323;DHT22;11833;52.554;13.554;2023-07-20T10:16:03;20.20;90.90
23323;DHT22;11833;52.554;13.554;2023-07-20T10:21:23;20.10;91.20
23323;DHT22;11833;52.554;13.554;2023-07-20T10:23:50;20.20;91.30
23323;DHT22;11833;52.554;13.554;2023-07-20T10:26:16;20.30;91.30
23323;DHT22;11833;52.554;13.554;2023-07-20T10:28:41;20.20;91.20
23323;DHT22;11833;52.554;13.554;2023-07-20T10:31:13;20.30;91.20
23323;DHT22;11833;52.554;13.554;2023-07-20T10:33:41;20.50;89.90
23323;DHT22;11833;52.554;13.554;2023-07-20T10:36:07;20.40;89.40
23323;DHT22;11833;52.554;13.554;2023-07-20T10:41:32;20.60;87.80
23323;DHT22;11833;52.554;13.554;2023-07-20T10:44:04;21.10;87.10
23323;DHT22;11833;52.554;13.554;2023-07-20T10:49:05;21.10;83.80
23323;DHT22;11833;52.554;13.554;2023-07-20T10:56:41;21.00;79.20
23323;DHT22;11833;52.554;13.554;2023-07-20T11:01:46;21.50;77.90
23323;DHT22;11833;52.554;13.554;2023-07-20T11:04:12;21.40;77.60
23323;DHT22;11833;52.554;13.554;2023-07-20T11:06:42;21.10;79.90
23323;DHT22;11833;52.554;13.554;2023-07-20T11:09:11;21.50;79.80
23323;DHT22;11833;52.554;13.554;2023-07-20T11:11:44;21.60;78.70
23323;DHT22;11833;52.554;13.554;2023-07-20T11:14:23;21.50;77.60
23323;DHT22;11833;52.554;13.554;2023-07-20T11:16:51;21.70;76.30
23323;DHT22;11833;52.554;13.554;2023-07-20T11:19:26;21.70;77.40
23323;DHT22;11833;52.554;13.554;2023-07-20T11:21:54;22.10;74.70
23323;DHT22;11833;52.554;13.554;2023-07-20T11:24:20;22.10;73.90
23323;DHT22;11833;52.554;13.554;2023-07-20T11:26:53;22.10;74.40
23323;DHT22;11833;52.554;13.554;2023-07-20T11:29:22;22.80;71.90
23323;DHT22;11833;52.554;13.554;2023-07-20T11:31:49;23.10;70.20
23323;DHT22;11833;52.554;13.554;2023-07-20T11:34:16;23.40;68.90
23323;DHT22;11833;52.554;13.554;2023-07-20T11:36:44;23.30;68.20
23323;DHT22;11833;52.554;13.554;2023-07-20T11:39:14;23.20;67.70
23323;DHT22;11833;52.554;13.554;2023-07-20T11:41:47;22.90;67.80
23323;DHT22;11833;52.554;13.554;2023-07-20T11:44:18;22.90;68.80
23323;DHT22;11833;52.554;13.554;2023-07-20T11:47:03;23.30;68.00
23323;DHT22;11833;52.554;13.554;2023-07-20T11:49:34;23.50;65.60
23323;DHT22;11833;52.554;13.554;2023-07-20T11:52:08;23.10;66.20
23323;DHT22;11833;52.554;13.554;2023-07-20T11:54:38;23.30;65.90
23323;DHT22;11833;52.554;13.554;2023-07-20T11:57:05;23.30;67.40
23323;DHT22;11833;52.554;13.554;2023-07-20T11:59:32;24.00;64.90
23323;DHT22;11833;52.554;13.554;2023-07-20T12:02:02;24.40;62.60
23323;DHT22;11833;52.554;13.554;2023-07-20T12:04:34;24.10;62.40
23323;DHT22;11833;52.554;13.554;2023-07-20T12:07:00;24.00;63.10
23323;DHT22;11833;52.554;13.554;2023-07-20T12:09:26;23.50;63.40
23323;DHT22;11833;52.554;13.554;2023-07-20T12:11:51;23.10;65.10
23323;DHT22;11833;52.554;13.554;2023-07-20T12:14:17;22.80;66.90
23323;DHT22;11833;52.554;13.554;2023-07-20T12:16:43;22.80;67.90
23323;DHT22;11833;52.554;13.554;2023-07-20T12:19:13;22.80;69.20
23323;DHT22;11833;52.554;13.554;2023-07-20T12:21:40;22.50;70.70
23323;DHT22;11833;52.554;13.554;2023-07-20T12:24:08;22.50;71.80
23323;DHT22;11833;52.554;13.554;2023-07-20T12:26:37;22.30;72.40
23323;DHT22;11833;52.554;13.554;2023-07-20T12:29:03;21.90;74.50
23323;DHT22;11833;52.554;13.554;2023-07-20T12:31:29;21.50;75.10
23323;DHT22;11833;52.554;13.554;2023-07-20T12:33:57;21.60;77.40
23323;DHT22;11833;52.554;13.554;2023-07-20T12:36:24;21.60;77.30
23323;DHT22;11833;52.554;13.554;2023-07-20T12:38:50;21.90;73.60
23323;DHT22;11833;52.554;13.554;2023-07-20T12:41:16;21.90;73.20
23323;DHT22;11833;52.554;13.554;2023-07-20T12:43:44;22.00;71.90
23323;DHT22;11833;52.554;13.554;2023-07-20T12:46:11;22.50;70.90
23323;DHT22;11833;52.554;13.554;2023-07-20T12:48:39;22.70;69.10
23323;DHT22;11833;52.554;13.554;2023-07-20T12:51:07;23.20;67.60
23323;DHT22;11833;52.554;13.554;2023-07-20T12:53:33;23.40;64.90
23323;DHT22;11833;52.554;13.554;2023-07-20T12:56:00;23.20;63.20
23323;DHT22;11833;52.554;13.554;2023-07-20T12:58:26;23.50;64.50
23323;DHT22;11833;52.554;13.554;2023-07-20T13:00:52;24.10;63.50
23323;DHT22;11833;52.554;13.554;2023-07-20T13:03:18;24.70;62.30
23323;DHT22;11833;52.554;13.554;2023-07-20T13:05:45;25.30;59.40
23323;DHT22;11833;52.554;13.554;2023-07-20T13:08:11;25.30;59.60
23323;DHT22;11833;52.554;13.554;2023-07-20T13:10:38;25.80;58.10
23323;DHT22;11833;52.554;13.554;2023-07-20T13:13:05;25.50;57.30
23323;DHT22;11833;52.554;13.554;2023-07-20T13:15:41;25.70;58.00
23323;DHT22;11833;52.554;13.554;2023-07-20T13:18:08;26.10;53.40
23323;DHT22;11833;52.554;13.554;2023-07-20T13:20:34;26.10;52.20
23323;DHT22;11833;52.554;13.554;2023-07-20T13:22:59;26.40;51.10
23323;DHT22;11833;52.554;13.554;2023-07-20T13:25:25;26.60;49.70
23323;DHT22;11833;52.554;13.554;2023-07-20T13:27:51;26.60;48.00
23323;DHT22;11833;52.554;13.554;2023-07-20T13:30:17;26.60;48.10
23323;DHT22;11833;52.554;13.554;2023-07-20T13:32:44;26.90;47.50
23323;DHT22;11833;52.554;13.554;2023-07-20T13:35:13;26.40;48.10
23323;DHT22;11833;52.554;13.554;2023-07-20T13:37:39;26.90;47.90
23323;DHT22;11833;52.554;13.554;2023-07-20T13:40:07;27.40;47.10
23323;DHT22;11833;52.554;13.554;2023-07-20T13:42:37;27.80;45.80
23323;DHT22;11833;52.554;13.554;2023-07-20T13:45:03;27.40;46.10
23323;DHT22;11833;52.554;13.554;2023-07-20T13:47:30;27.50;45.40
23323;DHT22;11833;52.554;13.554;2023-07-20T13:49:55;27.60;44.40
23323;DHT22;11833;52.554;13.554;2023-07-20T13:52:21;27.40;44.00
23323;DHT22;11833;52.554;13.554;2023-07-20T13:54:47;27.00;44.80
23323;DHT22;11833;52.554;13.554;2023-07-20T13:57:13;27.30;45.50
23323;DHT22;11833;52.554;13.554;2023-07-20T13:59:40;27.90;44.30
23323;DHT22;11833;52.554;13.554;2023-07-20T14:02:07;28.10;42.50
23323;DHT22;11833;52.554;13.554;2023-07-20T14:04:33;28.30;42.40
23323;DHT22;11833;52.554;13.554;2023-07-20T14:06:59;28.50;41.90
23323;DHT22;11833;52.554;13.554;2023-07-20T14:09:24;28.50;42.20
23323;DHT22;11833;52.554;13.554;2023-07-20T14:11:50;28.80;41.40
23323;DHT22;11833;52.554;13.554;2023-07-20T14:14:16;28.40;40.50
23323;DHT22;11833;52.554;13.554;2023-07-20T14:16:41;27.70;40.70
23323;DHT22;11833;52.554;13.554;2023-07-20T14:19:07;27.40;42.30
23323;DHT22;11833;52.554;13.554;2023-07-20T14:21:33;27.30;42.80
23323;DHT22;11833;52.554;13.554;2023-07-20T14:23:59;27.60;43.20
23323;DHT22;11833;52.554;13.554;2023-07-20T14:26:24;28.20;42.50
23323;DHT22;11833;52.554;13.554;2023-07-20T14:28:50;28.60;41.10
23323;DHT22;11833;52.554;13.554;2023-07-20T14:31:16;28.60;40.10
23323;DHT22;11833;52.554;13.554;2023-07-20T14:33:42;27.40;41.10
23323;DHT22;11833;52.554;13.554;2023-07-20T14:36:08;26.80;42.40
23323;DHT22;11833;52.554;13.554;2023-07-20T14:38:35;26.80;43.70
23323;DHT22;11833;52.554;13.554;2023-07-20T14:41:01;26.70;43.70
23323;DHT22;11833;52.554;13.554;2023-07-20T14:43:27;26.50;43.40
23323;DHT22;11833;52.554;13.554;2023-07-20T14:45:53;26.10;44.20
23323;DHT22;11833;52.554;13.554;2023-07-20T14:48:20;26.10;45.20
23323;DHT22;11833;52.554;13.554;2023-07-20T14:50:45;26.70;45.00
23323;DHT22;11833;52.554;13.554;2023-07-20T14:53:13;27.40;43.40
23323;DHT22;11833;52.554;13.554;2023-07-20T14:55:39;27.60;42.90
23323;DHT22;11833;52.554;13.554;2023-07-20T14:58:05;27.80;42.30
23323;DHT22;11833;52.554;13.554;2023-07-20T15:00:30;28.00;41.90
23323;DHT22;11833;52.554;13.554;2023-07-20T15:02:56;28.30;41.70
23323;DHT22;11833;52.554;13.554;2023-07-20T15:05:23;28.50;41.50
23323;DHT22;11833;52.554;13.554;2023-07-20T15:07:49;28.90;40.50
23323;DHT22;11833;52.554;13.554;2023-07-20T15:10:16;29.10;40.90
23323;DHT22;11833;52.554;13.554;2023-07-20T15:12:42;29.40;40.00
23323;DHT22;11833;52.554;13.554;2023-07-20T15:15:09;29.70;39.70
23323;DHT22;11833;52.554;13.554;2023-07-20T15:17:37;29.80;38.90
23323;DHT22;11833;52.554;13.554;2023-07-20T15:20:04;29.60;38.60
23323;DHT22;11833;52.554;13.554;2023-07-20T15:22:33;30.00;38.30
23323;DHT22;11833;52.554;13.554;2023-07-20T15:24:59;29.80;37.20
23323;DHT22;11833;52.554;13.554;2023-07-20T15:27:26;28.80;37.90
23323;DHT22;11833;52.554;13.554;2023-07-20T15:29:52;28.30;38.50
23323;DHT22;11833;52.554;13.554;2023-07-20T15:32:18;27.90;38.60
23323;DHT22;11833;52.554;13.554;2023-07-20T15:34:44;27.90;38.50
23323;DHT22;11833;52.554;13.554;2023-07-20T15:37:11;27.70;38.50
23323;DHT22;11833;52.554;13.554;2023-07-20T15:39:37;27.50;38.90
23323;DHT22;11833;52.554;13.554;2023-07-20T15:42:03;27.90;38.70
23323;DHT22;11833;52.554;13.554;2023-07-20T15:44:29;28.10;38.90
23323;DHT22;11833;52.554;13.554;2023-07-20T15:46:55;28.30;38.80
23323;DHT22;11833;52.554;13.554;2023-07-20T15:49:21;28.30;38.80